createdAt,value
2022-08-12T00:02:44.190Z,100334.59
2022-08-12T00:05:31.949Z,100341.19
2022-08-12T00:08:17.248Z,100338.69
2022-08-12T00:11:15.944Z,100335.13
2022-08-12T00:14:01.303Z,100332.38
2022-08-12T00:16:47.143Z,100332.09
2022-08-12T00:19:32.868Z,100334.56
2022-08-12T00:22:18.985Z,100343.59
2022-08-12T00:25:04.876Z,100341.38
2022-08-12T00:27:51.486Z,100344.03
2022-08-12T00:30:36.788Z,100340.22
2022-08-12T00:33:22.487Z,100347.31
2022-08-12T00:36:09.803Z,100351.66
2022-08-12T00:39:03.190Z,100349.47
2022-08-12T00:41:49.255Z,100350.56
2022-08-12T00:44:21.885Z,100362.00
2022-08-12T00:46:53.411Z,100362.28
2022-08-12T00:49:24.063Z,100370.19
2022-08-12T00:52:09.669Z,100361.69
2022-08-12T00:54:41.303Z,100366.91
2022-08-12T00:57:11.757Z,100366.09
2022-08-12T00:59:47.271Z,100370.16
2022-08-12T01:02:23.609Z,100363.53
2022-08-12T01:05:12.125Z,100364.63
2022-08-12T01:07:58.492Z,100361.78
2022-08-12T01:10:44.860Z,100366.88
2022-08-12T01:13:19.766Z,100372.19
2022-08-12T01:15:51.186Z,100373.03
2022-08-12T01:18:21.384Z,100372.41
2022-08-12T01:20:54.656Z,100373.41
2022-08-12T01:23:48.643Z,100377.72
2022-08-12T01:26:20.907Z,100380.25
2022-08-12T01:28:51.172Z,100374.13
2022-08-12T01:31:20.837Z,100371.72
2022-08-12T01:33:59.692Z,100372.66
2022-08-12T01:36:29.165Z,100379.25
2022-08-12T01:39:00.309Z,100379.06
2022-08-12T01:41:32.521Z,100380.81
2022-08-12T01:44:02.272Z,100390.16
2022-08-12T01:46:45.383Z,100389.56
2022-08-12T01:49:37.055Z,100387.91
2022-08-12T01:52:21.246Z,100379.72
2022-08-12T01:54:51.687Z,100380.00
2022-08-12T01:57:58.358Z,100378.91
2022-08-12T02:00:15.299Z,100369.00
2022-08-12T02:02:47.269Z,100370.06
2022-08-12T02:05:40.827Z,100373.28
2022-08-12T02:08:45.877Z,100374.38
2022-08-12T02:11:21.407Z,100370.84
2022-08-12T02:14:32.099Z,100368.56
2022-08-12T02:17:09.374Z,100365.28
2022-08-12T02:19:49.529Z,100365.00
2022-08-12T02:22:28.720Z,100367.44
2022-08-12T02:25:04.391Z,100363.00
2022-08-12T02:27:39.383Z,100369.84
2022-08-12T02:30:11.441Z,100367.69
2022-08-12T02:32:41.814Z,100362.47
2022-08-12T02:35:17.431Z,100363.38
2022-08-12T02:37:45.420Z,100355.50
2022-08-12T02:40:15.044Z,100355.41
2022-08-12T02:42:51.306Z,100357.75
2022-08-12T02:45:26.874Z,100361.16
2022-08-12T02:48:00.803Z,100362.75
2022-08-12T02:50:32.425Z,100363.66
2022-08-12T02:53:01.407Z,100360.66
2022-08-12T02:55:36.036Z,100358.25
2022-08-12T02:58:09.211Z,100356.47
2022-08-12T03:00:42.748Z,100366.38
2022-08-12T03:03:13.140Z,100359.41
2022-08-12T03:05:48.616Z,100365.63
2022-08-12T03:08:31.905Z,100367.97
2022-08-12T03:11:03.713Z,100367.66
2022-08-12T03:13:38.992Z,100367.41
2022-08-12T03:16:08.753Z,100364.78
2022-08-12T03:18:36.739Z,100373.63
2022-08-12T03:21:05.205Z,100384.91
2022-08-12T03:23:32.836Z,100373.19
2022-08-12T03:26:02.429Z,100379.31
2022-08-12T03:28:54.370Z,100387.78
2022-08-12T03:31:28.290Z,100389.38
2022-08-12T03:34:01.626Z,100384.69
2022-08-12T03:36:33.482Z,100390.03
2022-08-12T03:39:17.246Z,100379.97
2022-08-12T03:41:51.080Z,100378.81
2022-08-12T03:44:43.865Z,100387.63
2022-08-12T03:47:37.772Z,100384.91
2022-08-12T03:50:23.445Z,100393.91
2022-08-12T03:53:09.062Z,100391.69
2022-08-12T03:55:54.910Z,100389.94
2022-08-12T03:58:41.162Z,100392.25
2022-08-12T04:01:09.358Z,100393.75
2022-08-12T04:03:53.997Z,100394.88
2022-08-12T04:06:34.727Z,100410.25
2022-08-12T04:09:15.846Z,100413.72
2022-08-12T04:12:03.780Z,100413.28
2022-08-12T04:14:33.902Z,100412.53
2022-08-12T04:17:02.735Z,100414.84
2022-08-12T04:19:32.141Z,100407.03
2022-08-12T04:22:03.303Z,100412.63
2022-08-12T04:24:34.583Z,100414.44
2022-08-12T04:27:03.502Z,100408.69
2022-08-12T04:30:16.872Z,100408.84
2022-08-12T04:32:19.387Z,100409.41
2022-08-12T04:34:48.406Z,100411.78
2022-08-12T04:37:17.027Z,100408.00
2022-08-12T04:39:46.806Z,100405.28
2022-08-12T04:42:14.716Z,100410.88
2022-08-12T04:44:43.322Z,100416.53
2022-08-12T04:47:14.127Z,100410.50
2022-08-12T04:49:42.312Z,100409.78
2022-08-12T04:52:11.927Z,100411.34
2022-08-12T04:54:39.822Z,100412.03
2022-08-12T04:57:09.565Z,100413.91
2022-08-12T04:59:46.947Z,100417.16
2022-08-12T05:02:21.795Z,100419.13
2022-08-12T05:04:52.657Z,100410.34
2022-08-12T05:07:23.939Z,100409.03
2022-08-12T05:10:01.063Z,100425.69
2022-08-12T05:12:36.601Z,100416.47
2022-08-12T05:15:18.988Z,100415.91
2022-08-12T05:17:47.520Z,100417.25
2022-08-12T05:20:16.543Z,100423.66
2022-08-12T05:22:45.826Z,100428.81
2022-08-12T05:25:13.720Z,100419.94
2022-08-12T05:27:55.543Z,100415.97
2022-08-12T05:30:27.172Z,100421.97
2022-08-12T05:32:55.706Z,100426.88
2022-08-12T05:35:27.939Z,100423.97
2022-08-12T05:38:11.110Z,100425.50
2022-08-12T05:40:38.750Z,100432.03
2022-08-12T05:43:06.888Z,100429.91
2022-08-12T05:45:34.520Z,100430.75
2022-08-12T05:48:02.565Z,100423.41
2022-08-12T05:50:30.208Z,100419.94
2022-08-12T05:52:59.306Z,100419.66
2022-08-12T05:55:31.223Z,100421.19
2022-08-12T05:57:59.199Z,100420.97
2022-08-12T06:00:29.250Z,100424.16
2022-08-12T06:03:01.344Z,100409.28
2022-08-12T06:05:30.393Z,100416.50
2022-08-12T06:08:02.876Z,100410.44
2022-08-12T06:10:32.411Z,100414.53
2022-08-12T06:13:00.942Z,100412.44
2022-08-12T06:15:29.063Z,100410.16
2022-08-12T06:18:05.310Z,100411.72
2022-08-12T06:20:42.284Z,100400.31
2022-08-12T06:23:11.766Z,100410.97
2022-08-12T06:25:40.605Z,100408.97
2022-08-12T06:28:17.218Z,100415.56
2022-08-12T06:30:53.127Z,100405.66
2022-08-12T06:34:01.203Z,100409.44
2022-08-12T06:36:22.646Z,100410.34
2022-08-12T06:38:52.062Z,100411.56
2022-08-12T06:41:39.511Z,100413.94
2022-08-12T06:44:28.320Z,100413.41
2022-08-12T06:46:56.887Z,100408.50
2022-08-12T06:49:30.053Z,100405.94
2022-08-12T06:51:57.738Z,100411.13
2022-08-12T06:54:31.359Z,100415.06
2022-08-12T06:57:05.329Z,100401.09
2022-08-12T06:59:47.813Z,100403.06
2022-08-12T07:02:15.472Z,100405.97
2022-08-12T07:04:43.621Z,100407.56
2022-08-12T07:07:12.483Z,100403.03
2022-08-12T07:10:01.284Z,100401.13
2022-08-12T07:12:32.120Z,100405.66
2022-08-12T07:15:01.777Z,100410.97
2022-08-12T07:17:35.647Z,100412.84
2022-08-12T07:20:05.210Z,100407.97
2022-08-12T07:22:33.302Z,100402.94
2022-08-12T07:25:19.980Z,100412.94
2022-08-12T07:27:47.718Z,100404.25
2022-08-12T07:30:15.339Z,100411.38
2022-08-12T07:32:49.727Z,100412.53
2022-08-12T07:35:19.536Z,100406.41
2022-08-12T07:37:50.727Z,100409.34
2022-08-12T07:40:20.274Z,100411.13
2022-08-12T07:42:47.999Z,100420.41
2022-08-12T07:45:15.838Z,100412.00
2022-08-12T07:47:44.140Z,100413.53
2022-08-12T07:50:13.005Z,100411.75
2022-08-12T07:52:43.710Z,100416.19
2022-08-12T07:55:12.650Z,100411.03
2022-08-12T07:57:57.722Z,100409.97
2022-08-12T08:00:25.687Z,100401.59
2022-08-12T08:02:54.488Z,100402.50
2022-08-12T08:05:23.724Z,100401.66
2022-08-12T08:07:53.235Z,100403.66
2022-08-12T08:10:20.981Z,100398.69
2022-08-12T08:12:54.788Z,100397.66
2022-08-12T08:15:38.595Z,100395.28
2022-08-12T08:18:25.813Z,100385.28
2022-08-12T08:20:54.944Z,100390.25
2022-08-12T08:23:34.967Z,100395.22
2022-08-12T08:26:02.965Z,100382.75
2022-08-12T08:28:36.474Z,100381.84
2022-08-12T08:31:04.167Z,100372.69
2022-08-12T08:34:05.251Z,100375.84
2022-08-12T08:36:24.060Z,100371.97
2022-08-12T08:38:57.934Z,100369.53
2022-08-12T08:42:16.492Z,100376.31
2022-08-12T08:44:38.059Z,100369.69
2022-08-12T08:47:06.657Z,100360.22
2022-08-12T08:49:37.100Z,100361.88
2022-08-12T08:52:06.245Z,100362.34
2022-08-12T08:54:34.367Z,100362.66
2022-08-12T08:57:02.348Z,100356.69
2022-08-12T08:59:30.221Z,100352.09
2022-08-12T09:01:59.458Z,100356.25
2022-08-12T09:05:11.708Z,100342.94
2022-08-12T09:10:15.587Z,100345.34
2022-08-12T09:16:00.546Z,100352.91
2022-08-12T09:18:33.396Z,100342.97
2022-08-12T09:21:03.704Z,100348.66
2022-08-12T09:23:59.956Z,100357.22
2022-08-12T09:26:22.770Z,100348.41
2022-08-12T09:28:56.445Z,100353.44
2022-08-12T09:32:06.462Z,100349.50
2022-08-12T09:34:25.524Z,100333.88
2022-08-12T09:37:02.884Z,100347.03
2022-08-12T09:40:06.209Z,100340.47
2022-08-12T09:43:15.972Z,100345.84
2022-08-12T09:46:19.336Z,100335.56
2022-08-12T09:48:35.282Z,100337.91
2022-08-12T09:51:16.636Z,100334.47
2022-08-12T09:54:09.114Z,100328.28
2022-08-12T09:57:02.256Z,100330.03
2022-08-12T10:00:14.954Z,100316.75
2022-08-12T10:02:52.944Z,100319.16
2022-08-12T10:05:01.898Z,100325.53
2022-08-12T10:07:40.120Z,100312.75
2022-08-12T10:10:24.419Z,100309.91
2022-08-12T10:13:13.479Z,100300.22
2022-08-12T10:16:02.801Z,100295.59
2022-08-12T10:18:35.296Z,100300.00
2022-08-12T10:21:07.981Z,100297.88
2022-08-12T10:23:40.003Z,100294.19
2022-08-12T10:26:38.457Z,100285.88
2022-08-12T10:30:02.970Z,100275.56
2022-08-12T10:32:21.538Z,100277.19
2022-08-12T10:35:02.523Z,100273.81
2022-08-12T10:38:33.327Z,100265.06
2022-08-12T10:40:28.549Z,100265.06
2022-08-12T10:43:17.164Z,100265.94
2022-08-12T10:45:48.907Z,100258.63
2022-08-12T10:48:21.379Z,100255.22
2022-08-12T10:51:02.263Z,100261.16
2022-08-12T10:53:46.058Z,100252.88
2022-08-12T10:56:17.339Z,100253.06
2022-08-12T10:58:46.917Z,100252.34
2022-08-12T11:01:49.457Z,100252.56
2022-08-12T11:04:35.857Z,100236.44
2022-08-12T11:07:03.423Z,100242.91
2022-08-12T11:10:01.089Z,100241.31
2022-08-12T11:12:56.459Z,100238.53
2022-08-12T11:15:24.232Z,100229.72
2022-08-12T11:18:03.222Z,100224.34
2022-08-12T11:20:31.481Z,100232.13
2022-08-12T11:23:04.229Z,100217.59
2022-08-12T11:25:57.403Z,100211.25
2022-08-12T11:28:33.770Z,100216.25
2022-08-12T11:31:02.726Z,100211.31
2022-08-12T11:34:05.476Z,100216.59
2022-08-12T11:36:21.918Z,100212.84
2022-08-12T11:38:51.212Z,100206.81
2022-08-12T11:41:31.076Z,100210.59
2022-08-12T11:44:35.301Z,100207.56
2022-08-12T11:46:51.276Z,100196.81
2022-08-12T11:49:31.089Z,100201.72
2022-08-12T11:52:01.676Z,100203.28
2022-08-12T11:54:30.296Z,100201.13
2022-08-12T11:57:00.346Z,100173.56
2022-08-12T12:02:21.377Z,100182.50
2022-08-12T12:04:52.868Z,100184.97
2022-08-12T12:08:39.093Z,100181.41
2022-08-12T12:10:12.625Z,100172.78
2022-08-12T12:12:41.456Z,100177.34
2022-08-12T12:15:12.532Z,100187.47
2022-08-12T12:17:42.993Z,100178.28
2022-08-12T12:20:12.911Z,100179.38
2022-08-12T12:22:45.140Z,100172.97
2022-08-12T12:25:14.024Z,100159.13
2022-08-12T12:28:05.609Z,100149.97
2022-08-12T12:30:37.368Z,100158.00
2022-08-12T12:33:06.979Z,100156.50
2022-08-12T12:36:06.061Z,100146.53
2022-08-12T12:38:25.039Z,100152.44
2022-08-12T12:40:53.297Z,100146.13
2022-08-12T12:43:42.452Z,100143.53
2022-08-12T12:46:11.536Z,100131.00
2022-08-12T12:48:44.119Z,100133.63
2022-08-12T12:51:49.007Z,100129.97
2022-08-12T12:54:09.940Z,100126.84
2022-08-12T12:56:42.554Z,100123.94
2022-08-12T12:59:56.723Z,100129.88
2022-08-12T13:02:08.114Z,100119.06
2022-08-12T13:04:37.336Z,100127.59
2022-08-12T13:07:06.536Z,100120.06
2022-08-12T13:09:36.018Z,100119.13
2022-08-12T13:12:06.535Z,100113.03
2022-08-12T13:14:40.010Z,100104.78
2022-08-12T13:17:11.244Z,100101.53
2022-08-12T13:19:48.412Z,100112.47
2022-08-12T13:22:20.072Z,100111.31
2022-08-12T13:24:52.147Z,100108.22
2022-08-12T13:27:28.249Z,100095.13
2022-08-12T13:30:01.989Z,100102.31
2022-08-12T13:32:33.007Z,100101.22
2022-08-12T13:35:03.783Z,100091.19
2022-08-12T13:37:54.654Z,100089.94
2022-08-12T13:40:20.778Z,100083.31
2022-08-12T13:42:57.905Z,100088.69
2022-08-12T13:45:26.465Z,100082.44
2022-08-12T13:47:58.644Z,100084.38
2022-08-12T13:50:32.660Z,100088.44
2022-08-12T13:53:23.428Z,100082.47
2022-08-12T13:55:59.289Z,100082.13
2022-08-12T13:58:28.680Z,100083.16
2022-08-12T14:00:59.312Z,100075.16
2022-08-12T14:03:50.152Z,100077.63
2022-08-12T14:06:16.487Z,100076.66
2022-08-12T14:08:49.587Z,100070.78
2022-08-12T14:11:19.128Z,100070.78
2022-08-12T14:14:06.077Z,100068.56
2022-08-12T14:16:48.864Z,100075.69
2022-08-12T14:19:21.972Z,100076.63
2022-08-12T14:21:59.393Z,100082.81
2022-08-12T14:24:35.162Z,100067.78
2022-08-12T14:27:03.655Z,100070.47
2022-08-12T14:29:38.285Z,100060.84
2022-08-12T14:32:26.280Z,100066.03
2022-08-12T14:34:56.670Z,100064.25
2022-08-12T14:37:54.832Z,100064.56
2022-08-12T14:40:18.570Z,100059.34
2022-08-12T14:42:47.170Z,100063.28
2022-08-12T14:45:15.055Z,100077.44
2022-08-12T14:47:53.659Z,100075.81
2022-08-12T14:50:58.704Z,100068.00
2022-08-12T14:59:23.279Z,100062.00
2022-08-12T15:01:54.544Z,100050.31
2022-08-12T15:04:29.228Z,100048.63
2022-08-12T15:06:58.636Z,100046.34
2022-08-12T15:09:29.104Z,100047.97
2022-08-12T15:12:03.790Z,100040.00
2022-08-12T15:14:31.970Z,100049.91
2022-08-12T15:17:00.510Z,100040.19
2022-08-12T15:20:31.429Z,100045.22
2022-08-12T15:22:37.267Z,100039.72
2022-08-12T15:25:07.526Z,100042.94
2022-08-12T15:28:03.958Z,100039.84
2022-08-12T15:30:32.058Z,100036.56
2022-08-12T15:33:00.046Z,100040.97
2022-08-12T15:35:38.288Z,100042.94
2022-08-12T15:38:21.013Z,100037.56
2022-08-12T15:40:52.332Z,100043.22
2022-08-12T15:43:51.229Z,100037.69
2022-08-12T15:46:15.975Z,100037.41
2022-08-12T15:48:46.906Z,100040.81
2022-08-12T15:51:58.186Z,100043.91
2022-08-12T15:54:33.168Z,100043.44
2022-08-12T15:57:05.973Z,100043.44
2022-08-12T16:00:03.758Z,100040.00
2022-08-12T16:02:27.102Z,100048.16
2022-08-12T16:04:57.770Z,100051.72
2022-08-12T16:07:31.019Z,100041.63
2022-08-12T16:10:10.553Z,100046.81
2022-08-12T16:12:43.308Z,100046.19
2022-08-12T16:15:23.681Z,100040.00
2022-08-12T16:18:18.226Z,100027.28
2022-08-12T16:20:42.345Z,100030.56
2022-08-12T16:23:35.909Z,100032.53
2022-08-12T16:26:15.129Z,100022.28
2022-08-12T16:28:49.447Z,100027.16
2022-08-12T16:31:23.257Z,100018.34
2022-08-12T16:33:59.636Z,100019.03
2022-08-12T16:36:29.180Z,100010.88
2022-08-12T16:38:57.318Z,100013.25
2022-08-12T16:41:28.301Z,100009.81
2022-08-12T16:44:01.786Z,100012.25
2022-08-12T16:46:33.971Z,100013.72
2022-08-12T16:49:04.353Z,100012.97
2022-08-12T16:51:37.543Z,100017.22
2022-08-12T16:54:12.700Z,100018.34
2022-08-12T16:56:50.882Z,100016.53
2022-08-12T16:59:52.728Z,100018.47
2022-08-12T17:02:31.291Z,100016.78
2022-08-12T17:05:05.126Z,100015.97
2022-08-12T17:07:43.819Z,100009.34
2022-08-12T17:10:18.467Z,100004.63
2022-08-12T17:13:09.957Z,100015.91
2022-08-12T17:15:57.113Z,100011.41
2022-08-12T17:18:42.742Z,100007.69
2022-08-12T17:21:15.267Z,100003.00
2022-08-12T17:23:53.649Z,100001.69
2022-08-12T17:26:22.831Z,99997.94
2022-08-12T17:28:59.124Z,100003.66
2022-08-12T17:32:00.300Z,100009.13
2022-08-12T17:34:38.617Z,100004.06
2022-08-12T17:37:07.308Z,100009.63
2022-08-12T17:40:12.354Z,100008.56
2022-08-12T17:42:34.719Z,100007.06
2022-08-12T17:45:17.315Z,100019.56
2022-08-12T17:48:05.437Z,100016.44
2022-08-12T17:50:35.810Z,100020.44
2022-08-12T17:53:04.891Z,100012.81
2022-08-12T17:55:44.733Z,100011.56
2022-08-12T17:58:17.916Z,100026.00
2022-08-12T18:00:47.300Z,100021.44
2022-08-12T18:04:04.204Z,100025.25
2022-08-12T18:06:13.702Z,100021.16
2022-08-12T18:08:43.422Z,100028.84
2022-08-12T18:12:04.505Z,100027.63
2022-08-12T18:14:28.774Z,100023.56
2022-08-12T18:17:00.596Z,100023.88
2022-08-12T18:19:28.652Z,100019.41
2022-08-12T18:22:17.460Z,100035.56
2022-08-12T18:24:45.737Z,100038.63
2022-08-12T18:27:27.281Z,100042.75
2022-08-12T18:29:58.114Z,100041.44
2022-08-12T18:32:54.187Z,100041.31
2022-08-12T18:35:30.197Z,100042.44
2022-08-12T18:38:11.489Z,100044.47
2022-08-12T18:41:04.166Z,100045.91
2022-08-12T18:43:38.109Z,100053.19
2022-08-12T18:46:29.934Z,100052.06
2022-08-12T18:49:17.006Z,100055.00
2022-08-12T18:51:55.157Z,100055.63
2022-08-12T18:54:32.390Z,100051.84
2022-08-12T18:57:19.914Z,100052.59
2022-08-12T19:00:07.142Z,100053.47
2022-08-12T19:02:40.320Z,100058.69
2022-08-12T19:05:11.711Z,100060.03
2022-08-12T19:07:58.051Z,100050.69
2022-08-12T19:10:30.025Z,100062.50
2022-08-12T19:13:24.365Z,100062.47
2022-08-12T19:15:54.126Z,100062.16
2022-08-12T19:18:24.639Z,100065.09
2022-08-12T19:20:59.005Z,100076.59
2022-08-12T19:23:34.850Z,100071.28
2022-08-12T19:26:03.401Z,100076.00
2022-08-12T19:28:34.961Z,100072.94
2022-08-12T19:31:56.690Z,100082.59
2022-08-12T19:35:00.343Z,100082.16
2022-08-12T19:37:19.959Z,100082.44
2022-08-12T19:40:08.960Z,100081.16
2022-08-12T19:42:42.683Z,100073.41
2022-08-12T19:45:14.009Z,100075.34
2022-08-12T19:47:44.706Z,100083.34
2022-08-12T19:50:13.590Z,100077.75
2022-08-12T19:52:52.644Z,100079.44
2022-08-12T19:55:23.207Z,100085.50
2022-08-12T19:58:02.908Z,100090.56
2022-08-12T20:00:34.996Z,100102.19
2022-08-12T20:03:05.258Z,100097.66
2022-08-12T20:06:06.898Z,100106.50
2022-08-12T20:08:29.383Z,100111.16
2022-08-12T20:12:13.519Z,100107.63
2022-08-12T20:14:00.808Z,100109.03
2022-08-12T20:16:51.679Z,100103.63
2022-08-12T20:19:23.373Z,100099.06
2022-08-12T20:21:51.903Z,100108.88
2022-08-12T20:24:24.267Z,100115.00
2022-08-12T20:26:59.311Z,100109.81
2022-08-12T20:29:36.635Z,100113.75
2022-08-12T20:32:13.979Z,100117.38
2022-08-12T20:34:48.377Z,100120.25
2022-08-12T20:37:22.327Z,100122.13
2022-08-12T20:40:12.658Z,100124.31
2022-08-12T20:42:41.088Z,100124.94
2022-08-12T20:45:10.360Z,100120.34
2022-08-12T20:47:46.885Z,100134.03
2022-08-12T20:50:22.789Z,100134.41
2022-08-12T20:52:55.157Z,100134.66
2022-08-12T20:55:43.027Z,100139.84
2022-08-12T20:58:12.733Z,100129.47
2022-08-12T21:00:40.720Z,100134.66
2022-08-12T21:03:26.203Z,100136.59
2022-08-12T21:06:14.131Z,100141.88
2022-08-12T21:08:42.829Z,100148.16
2022-08-12T21:11:11.881Z,100145.41
2022-08-12T21:13:41.969Z,100148.72
2022-08-12T21:16:10.417Z,100138.41
2022-08-12T21:18:38.493Z,100150.75
2022-08-12T21:21:06.569Z,100142.31
2022-08-12T21:23:38.611Z,100139.66
2022-08-12T21:26:16.276Z,100150.06
2022-08-12T21:28:58.890Z,100152.53
2022-08-12T21:32:40.890Z,100162.41
2022-08-12T21:34:23.902Z,100156.69
2022-08-12T21:36:59.880Z,100159.97
2022-08-12T21:39:35.585Z,100156.19
2022-08-12T21:42:06.964Z,100162.47
2022-08-12T21:45:46.180Z,100162.75
2022-08-12T21:47:28.741Z,100165.22
2022-08-12T21:50:02.975Z,100166.34
2022-08-12T21:52:35.630Z,100165.22
2022-08-12T21:55:08.570Z,100170.44
2022-08-12T21:57:51.067Z,100171.78
2022-08-12T22:00:32.882Z,100170.69
2022-08-12T22:04:03.193Z,100173.72
2022-08-12T22:06:30.519Z,100177.53
2022-08-12T22:09:08.994Z,100184.09
2022-08-12T22:11:49.283Z,100177.81
2022-08-12T22:14:28.251Z,100177.78
2022-08-12T22:16:58.786Z,100183.53
2022-08-12T22:19:28.536Z,100184.63
2022-08-12T22:21:58.420Z,100182.16
2022-08-12T22:24:29.975Z,100187.06
2022-08-12T22:26:59.455Z,100189.81
2022-08-12T22:29:59.584Z,100195.78
2022-08-12T22:32:30.633Z,100187.59
2022-08-12T22:35:22.243Z,100194.19
2022-08-12T22:37:53.648Z,100197.13
2022-08-12T22:40:23.899Z,100192.22
2022-08-12T22:43:15.780Z,100189.22
2022-08-12T22:46:01.090Z,100194.41
2022-08-12T22:48:30.669Z,100196.00
2022-08-12T22:50:59.996Z,100202.28
2022-08-12T22:53:36.325Z,100200.63
2022-08-12T22:56:07.155Z,100203.06
2022-08-12T22:58:40.456Z,100211.25
2022-08-12T23:01:10.535Z,100195.94
2022-08-12T23:03:48.930Z,100198.13
2022-08-12T23:06:19.711Z,100192.63
2022-08-12T23:08:48.323Z,100195.59
2022-08-12T23:11:17.112Z,100185.50
2022-08-12T23:13:55.270Z,100195.88
2022-08-12T23:16:31.449Z,100194.78
2022-08-12T23:19:10.870Z,100196.66
2022-08-12T23:22:05.131Z,100188.94
2022-08-12T23:24:55.806Z,100194.34
2022-08-12T23:27:50.218Z,100188.81
2022-08-12T23:30:24.650Z,100196.75
2022-08-12T23:32:59.938Z,100201.13
2022-08-12T23:35:53.602Z,100198.19
2022-08-12T23:38:30.612Z,100211.59
2022-08-12T23:41:01.203Z,100211.06
2022-08-12T23:43:39.729Z,100194.69
2022-08-12T23:46:09.525Z,100201.78
2022-08-12T23:48:37.430Z,100199.03
2022-08-12T23:51:22.149Z,100206.13
2022-08-12T23:53:53.519Z,100200.56
2022-08-12T23:56:23.631Z,100205.75
2022-08-12T23:58:52.654Z,100210.19
